Aviation Digital Data Service (ADDS)

Output produced by TAFs form (0643 UTC 31 August 2015)
found at http://www.aviationweather.gov/adds/tafs/
 
KMDT 310559Z 3106/0106 00000KT P6SM BKN110 OVC140 
     FM311700 27006KT P6SM SCT060